Pagina principale
METAR-TAF:

METAR-TAF

Aeroporti :

Emmen, Svizzera

latitudine: 47-05-32N, longitudine: 8-18-16E, altezza: 426 m

Osservazione

Il bollettino è stato emesso 22 minuti fa, alle 12:50 UTC
Vento 20 kt da ovest/sud-ovest
Temperature 10°C
Umidità 66%
Pressione 1003 hPa
Visibilità 10 km o più
Poco nuvoloso ad un'altezza di 2800 ft
Nubi sparse ad un'altezza di 4700 ft
Nuvoloso ad un'altezza di 10000 ft
rovesci di pioggia

METAR: LSME 161250Z 24020KT 9999 -SHRA FEW028 SCT047 BKN100 10/04 Q1003 RMK BLU

Ora: 14:12 (13:12 UTC)


TAF: mancante

Osservazioni e previsioni meteorologiche di più di 4000 aeroporti (messaggi METAR e TAF).

Le stazioni disponibili sono rappresentate dai dischi gialli e rossi sulla carta.

Puntare il mouse per vedere il nome della stazione.

Clicca sopra per visualizzare le osservazioni e previsioni meteorologiche.

Per cambiare la mappa : fare clic sui pulsanti verdi con una croce nera per ingrandire, il pulsante verde con un trattino per diminuire, o sulla freccia verde per le mappe adiacenti.


METAR-TAF: